createdAt,value
2018-09-24T00:00:14.561Z,70.62
2018-09-24T00:01:14.381Z,72.16
2018-09-24T00:02:14.515Z,72.26
2018-09-24T00:03:14.508Z,72.26
2018-09-24T00:04:14.505Z,72.32
2018-09-24T00:05:14.533Z,72.71
2018-09-24T00:06:14.597Z,72.71
2018-09-24T00:07:14.744Z,73.48
2018-09-24T00:08:14.689Z,74.06
2018-09-24T00:09:14.731Z,74.16
2018-09-24T00:10:14.796Z,74.64
2018-09-24T00:11:14.849Z,74.83
2018-09-24T00:12:14.906Z,74.89
2018-09-24T00:13:15.018Z,74.60
2018-09-24T00:14:14.956Z,75.27
2018-09-24T00:15:15.027Z,74.54
2018-09-24T00:16:15.069Z,74.64
2018-09-24T00:17:15.124Z,74.89
2018-09-24T00:18:15.478Z,75.12
2018-09-24T00:19:15.219Z,75.41
2018-09-24T00:20:15.237Z,75.70
2018-09-24T00:21:15.325Z,76.15
2018-09-24T00:22:15.339Z,76.15
2018-09-24T00:23:15.556Z,76.53
2018-09-24T00:24:15.429Z,76.63
2018-09-24T00:25:15.478Z,77.21
2018-09-24T00:26:15.548Z,77.30
2018-09-24T00:27:15.600Z,77.30
2018-09-24T00:28:15.632Z,78.08
2018-09-24T00:29:15.985Z,77.50
2018-09-24T00:30:15.842Z,78.08
2018-09-24T00:31:15.790Z,78.36
2018-09-24T00:32:15.819Z,78.08
2018-09-24T00:33:15.861Z,78.27
2018-09-24T00:34:15.913Z,78.17
2018-09-24T00:35:16.268Z,78.27
2018-09-24T00:36:16.005Z,78.46
2018-09-24T00:37:16.052Z,78.17
2018-09-24T00:38:16.104Z,79.04
2018-09-24T00:39:16.161Z,78.66
2018-09-24T00:40:16.307Z,78.36
2018-09-24T00:41:16.238Z,79.04
2018-09-24T00:42:16.310Z,79.43
2018-09-24T00:43:16.380Z,79.24
2018-09-24T00:44:16.389Z,79.52
2018-09-24T00:45:16.703Z,79.52
2018-09-24T00:46:16.489Z,79.52
2018-09-24T00:47:16.527Z,79.91
2018-09-24T00:48:16.603Z,80.10
2018-09-24T00:49:16.637Z,79.91
2018-09-24T00:50:16.781Z,80.20
2018-09-24T00:51:16.715Z,80.20
2018-09-24T00:52:16.768Z,80.97
2018-09-24T00:53:16.806Z,80.00
2018-09-24T00:54:16.864Z,80.26
2018-09-24T00:55:17.218Z,80.54
2018-09-24T00:56:16.942Z,80.93
2018-09-24T00:57:17.047Z,81.60
2018-09-24T00:58:17.048Z,81.90
2018-09-24T00:59:17.101Z,82.48
2018-09-24T01:00:17.281Z,82.86
2018-09-24T01:01:17.188Z,83.25
2018-09-24T01:02:17.215Z,83.63
2018-09-24T01:03:17.274Z,84.01
2018-09-24T01:04:17.339Z,84.31
2018-09-24T01:05:17.661Z,85.08
2018-09-24T01:06:17.423Z,85.75
2018-09-24T01:07:17.469Z,85.85
2018-09-24T01:08:17.521Z,86.14
2018-09-24T01:09:17.613Z,85.75
2018-09-24T01:10:17.714Z,86.14
2018-09-24T01:11:17.654Z,86.62
2018-09-24T01:12:17.707Z,86.43
2018-09-24T01:13:17.764Z,86.72
2018-09-24T01:14:17.801Z,87.59
2018-09-24T01:15:18.117Z,87.40
2018-09-24T01:16:17.915Z,87.06
2018-09-24T01:17:17.952Z,86.48
2018-09-24T01:18:17.981Z,86.68
2018-09-24T01:19:18.072Z,86.68
2018-09-24T01:20:18.163Z,86.52
2018-09-24T01:21:18.126Z,86.29
2018-09-24T01:22:18.175Z,86.96
2018-09-24T01:23:18.233Z,87.16
2018-09-24T01:24:18.303Z,86.68
2018-09-24T01:25:18.616Z,87.16
2018-09-24T01:26:18.438Z,87.06
2018-09-24T01:27:18.388Z,87.35
2018-09-24T01:28:18.444Z,87.35
2018-09-24T01:29:18.491Z,87.45
2018-09-24T01:30:18.524Z,87.26
2018-09-24T01:31:18.605Z,87.26
2018-09-24T01:32:18.619Z,87.45
2018-09-24T01:33:18.679Z,87.45
2018-09-24T01:34:18.715Z,87.26
2018-09-24T01:35:18.772Z,87.54
2018-09-24T01:36:19.073Z,87.64
2018-09-24T01:37:18.846Z,87.93
2018-09-24T01:38:18.918Z,87.93
2018-09-24T01:39:18.953Z,88.60
2018-09-24T01:40:18.985Z,88.70
2018-09-24T01:41:19.147Z,88.51
2018-09-24T01:42:19.105Z,87.74
2018-09-24T01:43:19.140Z,88.02
2018-09-24T01:44:19.198Z,88.70
2018-09-24T01:45:19.235Z,88.51
2018-09-24T01:46:19.308Z,88.41
2018-09-24T01:47:19.432Z,88.51
2018-09-24T01:48:19.379Z,88.60
2018-09-24T01:49:19.426Z,88.60
2018-09-24T01:50:19.467Z,89.37
2018-09-24T01:51:19.532Z,89.33
2018-09-24T01:52:19.818Z,89.28
2018-09-24T01:53:19.723Z,89.67
2018-09-24T01:54:19.676Z,89.91
2018-09-24T01:55:19.725Z,89.81
2018-09-24T01:56:19.749Z,90.10
2018-09-24T01:57:19.790Z,90.30
2018-09-24T01:58:20.082Z,90.88
2018-09-24T01:59:19.876Z,90.30
2018-09-24T02:00:19.927Z,90.68
2018-09-24T02:01:19.973Z,91.16
2018-09-24T02:02:20.024Z,90.97
2018-09-24T02:03:20.156Z,90.78
2018-09-24T02:04:20.126Z,90.97
2018-09-24T02:05:20.160Z,90.88
2018-09-24T02:06:20.192Z,91.45
2018-09-24T02:07:20.308Z,91.26
2018-09-24T02:08:20.285Z,92.03
2018-09-24T02:09:20.650Z,91.64
2018-09-24T02:10:20.489Z,92.13
2018-09-24T02:11:20.442Z,92.22
2018-09-24T02:12:20.494Z,92.32
2018-09-24T02:13:20.544Z,92.13
2018-09-24T02:14:20.565Z,92.41
2018-09-24T02:15:20.739Z,92.41
2018-09-24T02:16:20.975Z,92.90
2018-09-24T02:17:20.726Z,93.09
2018-09-24T02:18:20.764Z,93.09
2018-09-24T02:19:20.795Z,93.57
2018-09-24T02:20:20.866Z,94.54
2018-09-24T02:21:21.006Z,94.63
2018-09-24T02:22:21.267Z,94.29
2018-09-24T02:23:21.004Z,95.07
2018-09-24T02:24:21.057Z,95.16
2018-09-24T02:25:21.092Z,94.49
2018-09-24T02:26:21.124Z,95.07
2018-09-24T02:27:21.300Z,94.87
2018-09-24T02:28:21.519Z,95.26
2018-09-24T02:29:21.281Z,95.26
2018-09-24T02:30:21.324Z,95.16
2018-09-24T02:31:21.367Z,94.39
2018-09-24T02:32:21.426Z,94.49
2018-09-24T02:33:21.564Z,94.39
2018-09-24T02:34:21.819Z,94.29
2018-09-24T02:35:21.573Z,94.01
2018-09-24T02:36:21.613Z,92.76
2018-09-24T02:37:21.635Z,92.66
2018-09-24T02:38:21.676Z,92.27
2018-09-24T02:39:21.824Z,93.04
2018-09-24T02:40:21.758Z,93.33
2018-09-24T02:41:21.827Z,93.04
2018-09-24T02:42:21.870Z,92.85
2018-09-24T02:43:21.988Z,92.94
2018-09-24T02:44:22.013Z,92.66
2018-09-24T02:45:22.305Z,92.85
2018-09-24T02:46:22.204Z,92.94
2018-09-24T02:47:22.122Z,92.76
2018-09-24T02:48:22.172Z,92.66
2018-09-24T02:49:22.187Z,91.79
2018-09-24T02:50:22.279Z,91.99
2018-09-24T02:51:22.432Z,91.41
2018-09-24T02:52:22.333Z,91.79
2018-09-24T02:53:22.404Z,92.08
2018-09-24T02:54:22.423Z,91.31
2018-09-24T02:55:22.475Z,91.12
2018-09-24T02:56:22.810Z,90.92
2018-09-24T02:57:22.566Z,90.92
2018-09-24T02:58:22.612Z,90.92
2018-09-24T02:59:22.654Z,91.12
2018-09-24T03:00:22.719Z,91.41
2018-09-24T03:01:22.969Z,90.83
2018-09-24T03:02:23.106Z,90.83
2018-09-24T03:03:22.860Z,90.39
2018-09-24T03:04:22.891Z,90.25
2018-09-24T03:05:22.941Z,90.10
2018-09-24T03:06:22.997Z,90.10
2018-09-24T03:07:23.109Z,90.06
2018-09-24T03:08:23.330Z,89.67
2018-09-24T03:09:23.118Z,89.86
2018-09-24T03:10:23.159Z,90.25
2018-09-24T03:11:23.211Z,91.02
2018-09-24T03:12:23.273Z,91.79
2018-09-24T03:13:23.411Z,91.79
2018-09-24T03:14:23.619Z,92.27
2018-09-24T03:15:23.399Z,91.99
2018-09-24T03:16:23.459Z,91.99
2018-09-24T03:17:23.493Z,91.21
2018-09-24T03:18:23.555Z,91.31
2018-09-24T03:19:23.702Z,91.50
2018-09-24T03:20:23.653Z,91.89
2018-09-24T03:21:23.672Z,91.94
2018-09-24T03:22:23.737Z,91.69
2018-09-24T03:23:23.778Z,91.17
2018-09-24T03:24:23.816Z,91.17
2018-09-24T03:25:24.165Z,90.92
2018-09-24T03:27:23.940Z,91.84
2018-09-24T03:28:23.991Z,92.03
2018-09-24T03:29:24.112Z,91.65
2018-09-24T03:30:24.112Z,92.52
2018-09-24T03:31:24.396Z,92.13
2018-09-24T03:32:24.200Z,92.42
2018-09-24T03:33:24.242Z,92.80
2018-09-24T03:34:24.290Z,93.19
2018-09-24T03:35:24.332Z,92.71
2018-09-24T03:36:24.381Z,92.80
2018-09-24T03:37:24.499Z,93.19
2018-09-24T03:38:24.462Z,93.09
2018-09-24T03:39:24.496Z,93.48
2018-09-24T03:40:24.547Z,93.38
2018-09-24T03:41:24.605Z,93.38
2018-09-24T03:42:24.886Z,93.19
2018-09-24T03:43:24.705Z,93.57
2018-09-24T03:44:24.734Z,93.77
2018-09-24T03:45:24.794Z,94.34
2018-09-24T03:46:24.845Z,94.40
2018-09-24T03:47:24.976Z,93.96
2018-09-24T03:48:25.208Z,93.38
2018-09-24T03:49:24.943Z,92.71
2018-09-24T03:50:24.996Z,91.65
2018-09-24T03:51:25.062Z,91.75
2018-09-24T03:52:25.105Z,92.08
2018-09-24T03:53:25.398Z,90.92
2018-09-24T03:54:25.198Z,91.41
2018-09-24T03:55:25.250Z,91.12
2018-09-24T03:56:25.295Z,91.36
2018-09-24T03:57:25.339Z,91.31
2018-09-24T03:58:25.482Z,91.41
2018-09-24T03:59:25.765Z,91.41
2018-09-24T04:00:25.483Z,91.12
2018-09-24T04:01:25.501Z,92.08
2018-09-24T04:02:25.545Z,92.08
2018-09-24T04:03:25.623Z,91.41
2018-09-24T04:04:25.796Z,91.50
2018-09-24T04:05:25.953Z,92.22
2018-09-24T04:06:25.753Z,92.03
2018-09-24T04:07:25.790Z,93.00
2018-09-24T04:08:25.835Z,92.61
2018-09-24T04:09:25.935Z,93.19
2018-09-24T04:10:26.015Z,93.19
2018-09-24T04:11:25.971Z,94.15
2018-09-24T04:12:26.016Z,94.64
2018-09-24T04:13:26.057Z,94.34
2018-09-24T04:14:26.107Z,94.40
2018-09-24T04:15:26.499Z,94.87
2018-09-24T04:16:26.204Z,95.36
2018-09-24T04:17:26.242Z,95.07
2018-09-24T04:18:26.284Z,95.74
2018-09-24T04:19:26.367Z,96.32
2018-09-24T04:20:26.373Z,96.32
2018-09-24T04:21:26.504Z,96.42
2018-09-24T04:22:26.696Z,95.84
2018-09-24T04:23:26.507Z,96.12
2018-09-24T04:24:26.579Z,96.42
2018-09-24T04:25:26.610Z,96.12
2018-09-24T04:26:26.643Z,96.42
2018-09-24T04:27:26.806Z,96.03
2018-09-24T04:28:26.793Z,96.22
2018-09-24T04:29:26.792Z,96.51
2018-09-24T04:30:26.883Z,95.94
2018-09-24T04:31:26.889Z,96.12
2018-09-24T04:32:27.227Z,96.12
2018-09-24T04:33:27.000Z,96.42
2018-09-24T04:34:27.038Z,96.99
2018-09-24T04:35:27.045Z,96.70
2018-09-24T04:36:27.119Z,96.22
2018-09-24T04:37:27.134Z,96.32
2018-09-24T04:38:27.293Z,95.36
2018-09-24T04:39:27.339Z,94.59
2018-09-24T04:40:27.297Z,94.01
2018-09-24T04:41:27.321Z,93.62
2018-09-24T04:42:27.384Z,93.62
2018-09-24T04:43:27.737Z,93.09
2018-09-24T04:44:27.466Z,92.66
2018-09-24T04:45:27.538Z,92.22
2018-09-24T04:46:27.579Z,92.71
2018-09-24T04:47:27.613Z,92.61
2018-09-24T04:48:27.751Z,93.15
2018-09-24T04:49:27.696Z,93.62
2018-09-24T04:50:27.743Z,93.72
2018-09-24T04:51:27.777Z,93.43
2018-09-24T04:52:27.838Z,92.85
2018-09-24T04:53:27.881Z,92.38
2018-09-24T04:54:28.019Z,92.08
2018-09-24T04:55:27.976Z,92.18
2018-09-24T04:56:28.005Z,91.99
2018-09-24T04:57:28.086Z,92.18
2018-09-24T04:58:28.115Z,91.60
2018-09-24T04:59:28.433Z,91.51
2018-09-24T05:00:28.363Z,92.08
2018-09-24T05:01:28.225Z,92.28
2018-09-24T05:02:28.281Z,92.28
2018-09-24T05:03:28.323Z,92.66
2018-09-24T05:04:28.370Z,92.66
2018-09-24T05:05:28.733Z,93.53
2018-09-24T05:06:28.487Z,93.72
2018-09-24T05:07:28.522Z,93.15
2018-09-24T05:08:28.566Z,92.66
2018-09-24T05:09:28.592Z,92.71
2018-09-24T05:10:28.910Z,93.24
2018-09-24T05:11:28.686Z,92.81
2018-09-24T05:12:28.758Z,93.24
2018-09-24T05:13:28.790Z,92.38
2018-09-24T05:14:28.833Z,92.52
2018-09-24T05:15:29.009Z,93.00
2018-09-24T05:16:29.006Z,93.82
2018-09-24T05:17:28.978Z,94.35
2018-09-24T05:18:29.024Z,94.06
2018-09-24T05:19:29.069Z,94.54
2018-09-24T05:20:29.407Z,94.83
2018-09-24T05:21:29.151Z,95.31
2018-09-24T05:22:29.246Z,95.98
2018-09-24T05:23:29.237Z,94.92
2018-09-24T05:24:29.302Z,96.37
2018-09-24T05:25:29.435Z,96.37
2018-09-24T05:26:29.597Z,96.85
2018-09-24T05:27:29.522Z,96.27
2018-09-24T05:28:29.466Z,95.55
2018-09-24T05:29:29.509Z,95.89
2018-09-24T05:30:29.544Z,95.26
2018-09-24T05:31:29.896Z,95.26
2018-09-24T05:32:29.794Z,95.26
2018-09-24T05:33:29.708Z,94.49
2018-09-24T05:34:29.810Z,94.68
2018-09-24T05:35:29.787Z,94.98
2018-09-24T05:36:29.816Z,95.07
2018-09-24T05:37:30.173Z,94.78
2018-09-24T05:38:29.924Z,95.07
2018-09-24T05:39:29.960Z,95.26
2018-09-24T05:40:30.020Z,95.26
2018-09-24T05:41:30.086Z,95.17
2018-09-24T05:42:30.216Z,95.75
2018-09-24T05:43:30.153Z,96.22
2018-09-24T05:44:30.193Z,96.22
2018-09-24T05:45:30.277Z,96.51
2018-09-24T05:46:30.283Z,96.80
2018-09-24T05:47:30.638Z,97.09
2018-09-24T05:48:30.368Z,96.99
2018-09-24T05:49:30.415Z,97.19
2018-09-24T05:50:30.469Z,97.09
2018-09-24T05:51:30.545Z,98.44
2018-09-24T05:52:30.557Z,98.34
2018-09-24T05:53:30.707Z,98.63
2018-09-24T05:54:30.929Z,98.91
2018-09-24T05:55:30.704Z,98.82
2018-09-24T05:56:30.733Z,99.11
2018-09-24T05:57:30.766Z,99.11
2018-09-24T05:58:30.823Z,98.91
2018-09-24T05:59:31.161Z,99.21
2018-09-24T06:00:30.999Z,99.30
2018-09-24T06:01:30.942Z,98.96
2018-09-24T06:02:30.987Z,98.96
2018-09-24T06:03:31.096Z,99.06
2018-09-24T06:04:31.186Z,99.54
2018-09-24T06:05:31.489Z,99.35
2018-09-24T06:06:31.503Z,99.25
2018-09-24T06:07:31.240Z,99.25
2018-09-24T06:08:31.279Z,99.92
2018-09-24T06:09:31.323Z,99.99
2018-09-24T06:10:31.349Z,99.99
2018-09-24T06:11:31.656Z,99.99
2018-09-24T06:12:31.712Z,99.99
2018-09-24T06:13:31.551Z,99.99
2018-09-24T06:14:31.588Z,99.92
2018-09-24T06:15:31.589Z,99.99
2018-09-24T06:16:31.693Z,99.99
2018-09-24T06:17:31.977Z,99.99
2018-09-24T06:18:31.731Z,99.40
2018-09-24T06:19:31.784Z,99.40
2018-09-24T06:20:31.808Z,99.40
2018-09-24T06:21:31.863Z,99.40
2018-09-24T06:22:32.317Z,99.99
2018-09-24T06:23:31.944Z,99.99
2018-09-24T06:24:32.013Z,99.99
2018-09-24T06:25:32.037Z,99.99
2018-09-24T06:26:32.086Z,99.88
2018-09-24T06:27:32.431Z,99.83
2018-09-24T06:28:32.622Z,99.99
2018-09-24T06:29:32.208Z,99.99
2018-09-24T06:30:32.270Z,99.99
2018-09-24T06:31:32.332Z,99.99
2018-09-24T06:32:32.410Z,99.99
2018-09-24T06:33:32.507Z,99.99
2018-09-24T06:34:32.490Z,99.99
2018-09-24T06:35:32.496Z,99.99
2018-09-24T06:36:32.537Z,99.99
2018-09-24T06:37:32.586Z,99.99
2018-09-24T06:38:32.683Z,99.99
2018-09-24T06:39:32.996Z,99.99
2018-09-24T06:40:32.809Z,99.99
2018-09-24T06:41:32.800Z,99.99
2018-09-24T06:42:32.813Z,99.99
2018-09-24T06:43:32.844Z,99.99
2018-09-24T06:44:32.934Z,99.99
2018-09-24T06:45:33.252Z,99.99
2018-09-24T06:46:33.296Z,99.99
2018-09-24T06:47:33.015Z,99.99
2018-09-24T06:48:33.086Z,99.99
2018-09-24T06:49:33.137Z,99.99
2018-09-24T06:50:33.174Z,99.99
2018-09-24T06:51:33.304Z,99.99
2018-09-24T06:52:33.276Z,99.99
2018-09-24T06:53:33.310Z,99.99
2018-09-24T06:54:33.353Z,99.99
2018-09-24T06:55:33.411Z,99.99
2018-09-24T06:56:33.436Z,99.99
2018-09-24T06:57:33.725Z,99.99
2018-09-24T06:58:33.808Z,99.99
2018-09-24T06:59:33.615Z,99.99
2018-09-24T07:00:33.656Z,99.99
2018-09-24T07:01:33.667Z,99.99
2018-09-24T07:02:33.693Z,99.99
2018-09-24T07:03:33.765Z,99.99
2018-09-24T07:04:33.902Z,99.99
2018-09-24T07:05:33.959Z,99.99
2018-09-24T07:06:33.897Z,99.99
2018-09-24T07:07:33.922Z,99.99
2018-09-24T07:08:33.985Z,99.99
2018-09-24T07:09:34.323Z,99.99
2018-09-24T07:10:34.080Z,99.99
2018-09-24T07:11:34.103Z,99.99
2018-09-24T07:12:34.188Z,99.99
2018-09-24T07:13:34.201Z,99.99
2018-09-24T07:14:34.340Z,99.99
2018-09-24T07:15:34.273Z,99.99
2018-09-24T07:16:34.327Z,99.99
2018-09-24T07:17:34.393Z,99.99
2018-09-24T07:18:34.429Z,99.99
2018-09-24T07:19:34.820Z,99.99
2018-09-24T07:20:34.507Z,99.99
2018-09-24T07:21:34.637Z,99.99
2018-09-24T07:22:34.595Z,99.99
2018-09-24T07:23:34.699Z,99.99
2018-09-24T07:24:34.788Z,99.99
2018-09-24T07:25:34.738Z,99.99
2018-09-24T07:26:34.801Z,99.99
2018-09-24T07:27:34.833Z,99.99
2018-09-24T07:28:34.892Z,99.99
2018-09-24T07:29:35.162Z,99.99
2018-09-24T07:30:35.326Z,99.99
2018-09-24T07:31:34.994Z,99.99
2018-09-24T07:32:35.055Z,99.99
2018-09-24T07:33:35.096Z,99.99
2018-09-24T07:34:35.154Z,99.99
2018-09-24T07:35:35.279Z,99.99
2018-09-24T07:36:35.463Z,99.99
2018-09-24T07:37:35.259Z,99.99
2018-09-24T07:38:35.320Z,99.99
2018-09-24T07:39:35.357Z,99.99
2018-09-24T07:40:35.402Z,99.99
2018-09-24T07:41:35.759Z,99.99
2018-09-24T07:42:35.508Z,99.99
2018-09-24T07:43:35.607Z,99.99
2018-09-24T07:44:35.581Z,99.99
2018-09-24T07:45:35.631Z,99.99
2018-09-24T07:46:35.767Z,99.99
2018-09-24T07:47:35.713Z,99.99
2018-09-24T07:48:35.776Z,99.99
2018-09-24T07:49:35.825Z,99.99
2018-09-24T07:50:35.856Z,99.99
2018-09-24T07:51:36.224Z,99.99
2018-09-24T07:52:36.055Z,99.99
2018-09-24T07:53:35.962Z,99.99
2018-09-24T07:54:36.012Z,99.99
2018-09-24T07:55:36.171Z,99.99
2018-09-24T07:56:36.121Z,99.99
2018-09-24T07:57:36.392Z,99.99
2018-09-24T07:58:36.187Z,99.99
2018-09-24T07:59:36.230Z,99.99
2018-09-24T08:00:36.335Z,99.99
2018-09-24T08:01:36.323Z,99.99
2018-09-24T08:02:36.776Z,99.99
2018-09-24T08:03:36.407Z,99.99
2018-09-24T08:04:36.476Z,99.99
2018-09-24T08:05:36.501Z,99.99
2018-09-24T08:06:36.567Z,99.99
2018-09-24T08:07:36.738Z,99.99
2018-09-24T08:08:36.905Z,99.99
2018-09-24T08:09:36.695Z,99.99
2018-09-24T08:10:36.737Z,99.99
2018-09-24T08:11:36.770Z,99.99
2018-09-24T08:12:36.816Z,99.99
2018-09-24T08:13:37.152Z,99.99
2018-09-24T08:14:36.951Z,99.99
2018-09-24T08:15:36.946Z,99.99
2018-09-24T08:16:37.004Z,99.99
2018-09-24T08:17:37.047Z,99.99
2018-09-24T08:18:37.083Z,99.99
2018-09-24T08:19:37.227Z,99.99
2018-09-24T08:20:37.163Z,99.99
2018-09-24T08:21:37.206Z,99.99
2018-09-24T08:22:37.266Z,99.99
2018-09-24T08:23:37.287Z,99.99
2018-09-24T08:24:37.596Z,99.99
2018-09-24T08:25:37.505Z,99.99
2018-09-24T08:26:37.444Z,99.99
2018-09-24T08:27:37.481Z,99.99
2018-09-24T08:28:37.521Z,99.99
2018-09-24T08:29:37.564Z,99.99
2018-09-24T08:30:37.602Z,99.99
2018-09-24T08:31:37.911Z,99.99
2018-09-24T08:32:37.722Z,99.99
2018-09-24T08:33:37.734Z,99.99
2018-09-24T08:34:37.776Z,99.99
2018-09-24T08:35:37.883Z,99.99
2018-09-24T08:36:37.971Z,99.99
2018-09-24T08:37:37.938Z,99.99
2018-09-24T08:38:37.934Z,99.99
2018-09-24T08:39:38.018Z,99.99
2018-09-24T08:40:38.058Z,99.99
2018-09-24T08:41:38.119Z,99.99
2018-09-24T08:42:38.250Z,99.99
2018-09-24T08:43:38.182Z,99.99
2018-09-24T08:44:38.247Z,99.99
2018-09-24T08:45:38.283Z,99.99
2018-09-24T08:46:38.345Z,99.99
2018-09-24T08:47:38.602Z,99.99
2018-09-24T08:48:38.413Z,99.99
2018-09-24T08:49:38.491Z,99.99
2018-09-24T08:50:38.498Z,99.99
2018-09-24T08:51:38.532Z,99.99
2018-09-24T08:52:38.687Z,99.99
2018-09-24T08:53:38.615Z,99.99
2018-09-24T08:54:38.684Z,99.99
2018-09-24T08:55:38.723Z,99.99
2018-09-24T08:56:38.789Z,99.99
2018-09-24T08:57:39.119Z,99.99
2018-09-24T08:58:38.841Z,99.87
2018-09-24T08:59:38.897Z,99.40
2018-09-24T09:00:38.922Z,99.49
2018-09-24T09:01:38.974Z,98.91
2018-09-24T09:02:39.043Z,98.91
2018-09-24T09:03:39.148Z,99.10
2018-09-24T09:04:39.095Z,99.01
2018-09-24T09:05:39.143Z,99.20
2018-09-24T09:06:39.170Z,99.10
2018-09-24T09:07:39.242Z,98.91
2018-09-24T09:08:39.278Z,98.63
2018-09-24T09:09:39.574Z,98.72
2018-09-24T09:10:39.670Z,98.63
2018-09-24T09:11:39.412Z,98.72
2018-09-24T09:12:39.448Z,98.72
2018-09-24T09:13:39.495Z,97.96
2018-09-24T09:14:39.563Z,98.63
2018-09-24T09:15:39.686Z,99.10
2018-09-24T09:16:39.638Z,98.43
2018-09-24T09:17:39.646Z,99.10
2018-09-24T09:18:39.724Z,98.91
2018-09-24T09:19:39.751Z,98.91
2018-09-24T09:20:40.035Z,98.91
2018-09-24T09:21:39.842Z,99.40
2018-09-24T09:22:39.878Z,99.87
2018-09-24T09:23:39.951Z,99.68
2018-09-24T09:24:39.982Z,99.99
2018-09-24T09:25:40.132Z,99.99
2018-09-24T09:26:40.085Z,99.99
2018-09-24T09:27:40.116Z,99.87
2018-09-24T09:28:40.188Z,99.99
2018-09-24T09:29:40.211Z,99.78
2018-09-24T09:30:40.536Z,99.44
2018-09-24T09:31:40.367Z,99.44
2018-09-24T09:32:40.344Z,98.86
2018-09-24T09:33:40.372Z,98.91
2018-09-24T09:34:40.413Z,98.44
2018-09-24T09:35:40.469Z,98.44
2018-09-24T09:36:40.817Z,97.47
2018-09-24T09:37:40.554Z,96.66
2018-09-24T09:38:40.610Z,96.08
2018-09-24T09:39:40.647Z,96.66
2018-09-24T09:40:40.731Z,95.50
2018-09-24T09:41:40.844Z,95.70
2018-09-24T09:42:40.771Z,95.26
2018-09-24T09:43:40.833Z,95.36
2018-09-24T09:44:40.887Z,95.45
2018-09-24T09:45:40.927Z,94.78
2018-09-24T09:46:41.324Z,95.26
2018-09-24T09:47:41.009Z,96.42
2018-09-24T09:48:41.083Z,97.67
2018-09-24T09:49:41.120Z,98.54
2018-09-24T09:50:41.142Z,96.80
2018-09-24T09:51:41.274Z,95.65
2018-09-24T09:52:41.582Z,95.79
2018-09-24T09:53:41.401Z,94.15
2018-09-24T09:54:41.340Z,93.48
2018-09-24T09:55:41.373Z,93.62
2018-09-24T09:56:41.462Z,96.12
2018-09-24T09:57:41.604Z,97.67
2018-09-24T09:58:41.522Z,98.34
2018-09-24T09:59:41.559Z,98.72
2018-09-24T10:00:41.599Z,98.34
2018-09-24T10:01:41.695Z,98.63
2018-09-24T10:02:41.801Z,97.86
2018-09-24T10:03:42.062Z,97.67
2018-09-24T10:04:41.864Z,97.33
2018-09-24T10:05:41.879Z,97.24
2018-09-24T10:06:41.902Z,97.04
2018-09-24T10:07:41.926Z,96.75
2018-09-24T10:08:42.088Z,96.51
2018-09-24T10:09:42.316Z,95.59
2018-09-24T10:10:42.091Z,93.85
2018-09-24T10:11:42.142Z,89.59
2018-09-24T10:12:42.177Z,86.69
2018-09-24T10:13:42.230Z,84.16
2018-09-24T10:14:42.357Z,81.33
2018-09-24T10:15:42.336Z,78.69
2018-09-24T10:16:42.374Z,75.67
2018-09-24T10:17:42.414Z,74.63
2018-09-24T10:18:42.467Z,72.66
2018-09-24T10:19:42.508Z,70.23
2018-09-24T10:20:42.653Z,69.71
2018-09-24T10:21:42.927Z,68.38
2018-09-24T10:22:42.687Z,67.64
2018-09-24T10:23:42.722Z,66.08
2018-09-24T10:24:42.785Z,65.04
2018-09-24T10:25:42.805Z,64.75
2018-09-24T10:26:43.015Z,64.75
2018-09-24T10:27:43.164Z,63.70
2018-09-24T10:28:42.991Z,63.41
2018-09-24T10:29:43.031Z,63.34
2018-09-24T10:30:43.130Z,62.11
2018-09-24T10:31:43.142Z,61.25
2018-09-24T10:32:43.329Z,61.19
2018-09-24T10:33:43.556Z,60.24
2018-09-24T10:34:43.304Z,59.17
2018-09-24T10:35:43.346Z,59.49
2018-09-24T10:36:43.453Z,58.90
2018-09-24T10:37:43.500Z,58.15
2018-09-24T10:38:43.621Z,57.56
2018-09-24T10:39:43.998Z,57.20
2018-09-24T10:40:43.638Z,56.83
2018-09-24T10:41:43.689Z,54.94
2018-09-24T10:42:43.782Z,55.31
2018-09-24T10:43:43.801Z,55.92
2018-09-24T10:44:43.975Z,56.34
2018-09-24T10:45:43.910Z,55.07
2018-09-24T10:46:43.973Z,56.27
2018-09-24T10:47:44.019Z,55.41
2018-09-24T10:48:44.092Z,54.27
2018-09-24T10:49:44.245Z,54.10
2018-09-24T10:50:44.173Z,53.67
2018-09-24T10:51:44.280Z,54.17
2018-09-24T10:52:44.300Z,54.27
2018-09-24T10:53:44.341Z,54.17
2018-09-24T10:54:44.402Z,52.42
2018-09-24T10:55:44.808Z,52.55
2018-09-24T10:56:44.636Z,51.69
2018-09-24T10:57:44.580Z,50.61
2018-09-24T10:58:44.652Z,50.24
2018-09-24T10:59:44.695Z,49.65
2018-09-24T11:00:44.752Z,49.06
2018-09-24T11:01:44.912Z,46.85
2018-09-24T11:02:44.871Z,48.08
2018-09-24T11:03:44.906Z,49.53
2018-09-24T11:04:45.031Z,49.55
2018-09-24T11:05:45.044Z,49.08
2018-09-24T11:06:45.134Z,48.99
2018-09-24T11:07:45.250Z,48.18
2018-09-24T11:08:45.210Z,47.49
2018-09-24T11:09:45.285Z,47.59
2018-09-24T11:10:45.316Z,47.79
2018-09-24T11:11:45.366Z,47.77
2018-09-24T11:12:45.765Z,47.47
2018-09-24T11:13:45.525Z,48.92
2018-09-24T11:14:45.557Z,48.18
2018-09-24T11:15:45.714Z,46.73
2018-09-24T11:16:45.779Z,46.73
2018-09-24T11:17:46.194Z,46.83
2018-09-24T11:18:45.793Z,46.41
2018-09-24T11:19:45.848Z,46.98
2018-09-24T11:20:45.913Z,47.20
2018-09-24T11:21:45.963Z,47.64
2018-09-24T11:22:45.999Z,46.06
2018-09-24T11:23:46.302Z,45.87
2018-09-24T11:24:46.110Z,45.09
2018-09-24T11:25:46.198Z,44.57
2018-09-24T11:26:46.284Z,45.38
2018-09-24T11:27:46.363Z,44.71
2018-09-24T11:28:46.376Z,44.64
2018-09-24T11:29:46.592Z,43.77
2018-09-24T11:30:46.465Z,43.97
2018-09-24T11:31:46.552Z,44.26
2018-09-24T11:32:46.625Z,44.46
2018-09-24T11:33:46.640Z,44.54
2018-09-24T11:34:46.998Z,44.09
2018-09-24T11:35:46.764Z,42.76
2018-09-24T11:36:46.868Z,41.86
2018-09-24T11:37:46.897Z,42.26
2018-09-24T11:38:46.944Z,42.65
2018-09-24T11:39:47.110Z,43.17
2018-09-24T11:40:47.317Z,41.93
2018-09-24T11:41:47.134Z,41.41
2018-09-24T11:42:47.168Z,41.91
2018-09-24T11:43:47.234Z,41.91
2018-09-24T11:44:47.311Z,42.38
2018-09-24T11:45:47.459Z,43.46
2018-09-24T11:46:47.468Z,43.44
2018-09-24T11:47:47.468Z,43.91
2018-09-24T11:48:47.520Z,43.34
2018-09-24T11:49:47.573Z,42.36
2018-09-24T11:50:47.750Z,41.77
2018-09-24T11:51:47.714Z,42.46
2018-09-24T11:52:47.779Z,42.18
2018-09-24T11:53:47.811Z,41.22
2018-09-24T11:54:47.908Z,41.00
2018-09-24T11:55:47.961Z,41.89
2018-09-24T11:56:48.140Z,41.71
2018-09-24T11:57:48.053Z,43.03
2018-09-24T11:58:48.132Z,43.52
2018-09-24T11:59:48.185Z,43.03
2018-09-24T12:00:48.273Z,41.99
2018-09-24T12:01:48.346Z,41.12
2018-09-24T12:02:48.475Z,41.33
2018-09-24T12:03:48.444Z,40.25
2018-09-24T12:04:48.496Z,40.35
2018-09-24T12:05:48.554Z,41.27
2018-09-24T12:06:48.616Z,42.07
2018-09-24T12:07:48.777Z,41.75
2018-09-24T12:08:48.728Z,41.93
2018-09-24T12:09:48.831Z,42.36
2018-09-24T12:10:48.869Z,41.67
2018-09-24T12:11:48.923Z,41.49
2018-09-24T12:12:49.296Z,41.17
2018-09-24T12:13:49.132Z,41.86
2018-09-24T12:14:49.090Z,41.16
2018-09-24T12:15:49.150Z,40.45
2018-09-24T12:16:49.202Z,41.71
2018-09-24T12:17:49.271Z,41.41
2018-09-24T12:18:49.438Z,41.90
2018-09-24T12:19:49.384Z,40.61
2018-09-24T12:20:49.454Z,41.02
2018-09-24T12:21:49.513Z,41.11
2018-09-24T12:22:49.558Z,41.61
2018-09-24T12:23:49.658Z,42.18
2018-09-24T12:24:49.838Z,42.89
2018-09-24T12:25:49.762Z,42.22
2018-09-24T12:26:49.820Z,41.35
2018-09-24T12:27:49.872Z,40.78
2018-09-24T12:28:49.920Z,39.92
2018-09-24T12:29:49.989Z,39.52
2018-09-24T12:30:50.166Z,40.25
2018-09-24T12:31:50.420Z,39.97
2018-09-24T12:32:50.185Z,38.69
2018-09-24T12:33:50.283Z,39.76
2018-09-24T12:34:50.316Z,39.06
2018-09-24T12:35:50.347Z,39.36
2018-09-24T12:36:50.509Z,39.09
2018-09-24T12:37:50.465Z,39.09
2018-09-24T12:38:50.548Z,39.18
2018-09-24T12:39:50.582Z,38.18
2018-09-24T12:40:50.705Z,40.11
2018-09-24T12:41:50.815Z,39.50
2018-09-24T12:42:50.770Z,39.79
2018-09-24T12:43:50.843Z,39.50
2018-09-24T12:44:50.919Z,40.11
2018-09-24T12:45:50.970Z,40.31
2018-09-24T12:46:51.153Z,39.89
2018-09-24T12:47:51.081Z,39.12
2018-09-24T12:48:51.151Z,39.73
2018-09-24T12:49:51.225Z,38.98
2018-09-24T12:50:51.322Z,37.80
2018-09-24T12:51:51.343Z,38.63
2018-09-24T12:52:51.693Z,37.66
2018-09-24T12:53:51.561Z,37.28